Terminal Aerodrome Forecast
Issued by NWS

Home | Current Version | Previous Version | Text Only | Print | Product List | Glossary On
Versions: 1 2 3 4 5 6 7 8 9 10 11 12 13 14 15 16
000
FTUS45 KGGW 282300
TAFSDY
TAF
KSDY 282320Z 2900/2924 07011KT P6SM OVC026
     FM290600 08009KT 5SM BR VCSH OVC021
     FM291200 08008KT 6SM -SHRA OVC012
     FM291800 11012KT 6SM -SHRA OVC021
      AMD LTD TO CLD VIS AND WIND=

USA.gov is the U.S. government's official web portal to all federal, state and local government web resources and services.